Time;durP1;ratioP1;P1;durP2;ratioP2;P2;SDS_P1;SDS_P2;PMS_P1;PMS_P2;Temp;Humidity;BMP_temperature;BMP_pressure;BME280_temperature;BME280_humidity;BME280_pressure;Samples;Min_cycle;Max_cycle;Signal;HPM_P1;HPM_P2
2021/06/08 00:02:48;;;;;;;9.48;8.38;;;;;;;12.32;66.77;100084.92;260166;1102;103500;-70
2021/06/08 00:07:55;;;;;;;10.85;7.18;;;;;;;12.39;66.90;100090.14;261210;1107;104117;-71
2021/06/08 00:13:00;;;;;;;10.10;8.73;;;;;;;12.39;67.01;100088.28;261311;1107;102972;-70
2021/06/08 00:18:06;;;;;;;8.70;7.88;;;;;;;12.37;66.97;100081.55;260158;1107;102988;-69
2021/06/08 00:23:12;;;;;;;9.55;7.08;;;;;;;12.21;66.95;100082.30;260688;1107;102960;-69
2021/06/08 00:28:17;;;;;;;8.43;7.63;;;;;;;12.06;67.69;100080.12;260533;1107;102969;-70
2021/06/08 00:33:21;;;;;;;7.23;5.85;;;;;;;11.99;67.34;100076.76;260189;1107;103000;-71
2021/06/08 00:38:26;;;;;;;10.50;7.65;;;;;;;11.89;67.67;100071.22;260143;1101;103072;-73
2021/06/08 00:43:32;;;;;;;9.18;8.28;;;;;;;11.83;67.92;100069.48;262627;1107;101502;-72
2021/06/08 00:48:37;;;;;;;8.43;7.55;;;;;;;11.83;67.75;100072.16;261318;1107;102968;-71
2021/06/08 00:53:43;;;;;;;10.80;7.63;;;;;;;11.81;67.99;100075.06;260731;1103;102942;-72
2021/06/08 00:58:48;;;;;;;8.25;7.50;;;;;;;11.82;68.11;100073.20;261030;1107;103042;-72
2021/06/08 01:03:53;;;;;;;9.60;7.50;;;;;;;11.77;67.87;100066.70;260715;1102;103277;-72
2021/06/08 01:08:57;;;;;;;12.18;8.58;;;;;;;11.62;68.23;100063.65;260315;1106;103091;-73
2021/06/08 01:14:01;;;;;;;13.15;10.80;;;;;;;11.62;68.50;100078.86;260658;1101;102989;-72
2021/06/08 01:19:06;;;;;;;14.15;8.23;;;;;;;11.62;68.35;100070.84;261210;1107;102968;-72
2021/06/08 01:24:11;;;;;;;14.48;8.50;;;;;;;11.54;68.64;100066.69;260237;1107;103094;-73
2021/06/08 01:29:15;;;;;;;12.63;10.15;;;;;;;11.50;69.27;100064.72;259999;1107;103337;-72
2021/06/08 01:34:20;;;;;;;19.73;11.95;;;;;;;11.48;69.84;100057.75;260231;1103;103042;-72
2021/06/08 01:39:26;;;;;;;13.80;9.63;;;;;;;11.47;68.98;100065.99;260093;1107;102987;-71
2021/06/08 01:44:31;;;;;;;10.30;9.28;;;;;;;11.44;69.70;100059.25;260128;1107;103014;-72
2021/06/08 01:49:37;;;;;;;10.60;7.90;;;;;;;11.33;69.38;100068.06;261279;1107;103017;-71
2021/06/08 01:54:59;;;;;;;8.98;8.08;;;;;;;11.19;69.29;100074.68;260539;1107;103074;-71
2021/06/08 02:00:13;;;;;;;7.10;6.48;;;;;;;11.14;69.58;100063.88;260545;1107;104021;-72
2021/06/08 02:05:41;;;;;;;18.00;10.38;;;;;;;11.07;69.74;100071.98;260893;1107;103087;-72
2021/06/08 02:11:11;;;;;;;14.35;10.78;;;;;;;11.03;69.82;100081.48;261820;1107;103050;-73
2021/06/08 02:16:28;;;;;;;11.03;9.50;;;;;;;11.00;70.13;100075.82;260669;1106;102934;-73
2021/06/08 02:21:44;;;;;;;9.53;8.45;;;;;;;10.93;69.91;100086.59;259977;1107;102964;-73
2021/06/08 02:26:52;;;;;;;8.28;7.05;;;;;;;10.84;70.37;100087.13;260325;1107;103067;-73
2021/06/08 02:31:58;;;;;;;11.20;10.18;;;;;;;10.83;70.54;100069.50;260949;1107;103014;-72
2021/06/08 02:37:03;;;;;;;11.75;9.98;;;;;;;10.92;70.94;100084.14;260799;1107;103075;-71
2021/06/08 02:42:12;;;;;;;11.45;10.28;;;;;;;11.02;71.53;100082.52;262661;1107;103004;-72
2021/06/08 02:47:19;;;;;;;13.13;7.93;;;;;;;11.07;70.80;100087.17;262504;1102;103241;-72
2021/06/08 02:52:27;;;;;;;7.40;6.70;;;;;;;11.04;70.62;100083.11;260119;1107;103069;-74
2021/06/08 02:57:34;;;;;;;11.40;9.85;;;;;;;11.03;70.59;100092.16;262044;1107;102937;-72
2021/06/08 03:02:42;;;;;;;12.66;10.12;;;;;;;11.10;70.58;100087.53;260592;1107;103674;-73
2021/06/08 03:07:51;;;;;;;11.83;8.35;;;;;;;11.12;70.59;100093.45;260681;1107;103103;-77
2021/06/08 03:13:01;;;;;;;6.88;5.90;;;;;;;11.12;70.86;100093.45;260312;1107;103045;-72
2021/06/08 03:18:09;;;;;;;7.68;6.98;;;;;;;11.11;70.81;100104.36;260386;1107;102963;-74
2021/06/08 03:23:20;;;;;;;13.75;9.38;;;;;;;11.16;70.60;100103.67;259985;1101;102960;-73
2021/06/08 03:28:31;;;;;;;11.03;9.85;;;;;;;11.25;70.72;100112.98;260145;1107;103369;-73
2021/06/08 03:33:36;;;;;;;10.23;9.20;;;;;;;11.30;71.36;100124.59;260125;1107;102966;-73
2021/06/08 03:38:42;;;;;;;11.03;9.90;;;;;;;11.47;71.84;100116.71;260564;1103;102964;-73
2021/06/08 03:43:49;;;;;;;11.85;10.18;;;;;;;12.11;70.64;100120.31;260453;1107;102955;-71
2021/06/08 03:48:58;;;;;;;13.33;10.75;;;;;;;12.24;70.88;100116.55;260732;1107;103036;-70
2021/06/08 03:54:03;;;;;;;9.08;8.33;;;;;;;12.48;70.46;100116.27;260521;1107;103043;-73
2021/06/08 03:59:11;;;;;;;9.43;8.53;;;;;;;12.64;71.06;100121.90;260311;1107;103133;-72
2021/06/08 04:04:18;;;;;;;14.90;10.78;;;;;;;12.78;70.58;100121.39;260414;1107;103037;-72
2021/06/08 04:09:23;;;;;;;12.53;10.73;;;;;;;13.00;70.89;100123.36;260178;1103;102954;-71
2021/06/08 04:14:30;;;;;;;13.95;10.80;;;;;;;13.55;70.87;100115.45;260193;1102;103068;-72
2021/06/08 04:19:35;;;;;;;11.85;9.08;;;;;;;14.21;70.23;100121.74;260052;1102;103043;-72
2021/06/08 04:24:40;;;;;;;9.60;8.18;;;;;;;15.60;69.04;100126.38;261407;1107;103055;-70
2021/06/08 04:29:45;;;;;;;11.70;8.28;;;;;;;17.74;66.89;100115.16;261311;1107;103038;-70
2021/06/08 04:34:52;;;;;;;8.78;7.98;;;;;;;20.45;63.00;100116.52;260013;1107;102980;-69
2021/06/08 04:39:57;;;;;;;8.48;5.80;;;;;;;24.59;57.09;100124.61;260959;1107;103071;-70
2021/06/08 04:45:02;;;;;;;7.75;7.05;;;;;;;25.57;54.05;100127.48;262015;1107;101851;-71
2021/06/08 04:50:08;;;;;;;7.65;6.93;;;;;;;25.02;52.50;100130.14;261999;1107;103001;-72
2021/06/08 04:55:14;;;;;;;8.83;7.73;;;;;;;23.80;51.92;100131.72;260973;1107;103371;-71
2021/06/08 05:00:54;;;;;;;7.73;6.70;;;;;;;24.12;50.71;100127.84;260035;1107;102939;-71
2021/06/08 05:06:01;;;;;;;7.28;6.53;;;;;;;26.72;47.32;100139.20;261882;1107;103062;-71
2021/06/08 05:11:24;;;;;;;9.33;7.18;;;;;;;28.68;44.77;100141.31;260943;1107;103122;-70
2021/06/08 05:16:30;;;;;;;7.10;6.48;;;;;;;32.55;40.60;100141.06;260880;1107;102939;-73
2021/06/08 05:21:37;;;;;;;6.03;5.30;;;;;;;35.16;36.77;100143.10;260859;1107;102994;-72
2021/06/08 05:26:44;;;;;;;5.45;5.00;;;;;;;36.94;33.35;100144.72;261558;1107;103109;-74
2021/06/08 05:31:54;;;;;;;3.75;3.45;;;;;;;38.58;31.28;100144.34;260119;1107;104775;-70
2021/06/08 05:37:10;;;;;;;6.00;3.33;;;;;;;39.65;28.76;100152.14;261127;1107;103068;-70
2021/06/08 05:42:20;;;;;;;8.60;4.05;;;;;;;40.41;27.14;100143.30;260513;1107;102946;-70
2021/06/08 05:47:26;;;;;;;4.33;4.00;;;;;;;41.10;25.53;100147.13;260539;1107;102960;-72
2021/06/08 05:52:31;;;;;;;4.63;3.58;;;;;;;41.93;24.49;100142.00;260762;1107;103217;-73
2021/06/08 05:57:37;;;;;;;5.30;2.93;;;;;;;42.51;22.96;100140.09;260881;1107;102936;-74
2021/06/08 06:02:43;;;;;;;5.83;3.78;;;;;;;42.64;21.93;100148.56;260083;1107;103027;-73
2021/06/08 06:07:49;;;;;;;4.05;3.65;;;;;;;43.12;21.48;100143.95;260803;1107;103881;-71
2021/06/08 06:12:55;;;;;;;5.90;3.70;;;;;;;43.32;21.43;100153.00;260988;1101;103075;-72
2021/06/08 06:18:05;;;;;;;3.00;2.78;;;;;;;43.42;20.65;100143.44;261118;1102;102898;-67
2021/06/08 06:23:10;;;;;;;4.65;3.83;;;;;;;43.16;20.08;100141.84;260559;1107;103078;-71
2021/06/08 06:28:16;;;;;;;3.78;3.45;;;;;;;42.89;20.07;100145.05;260045;1101;103103;-71
2021/06/08 06:33:23;;;;;;;3.83;3.53;;;;;;;42.60;20.42;100142.27;261411;1107;102942;-69
2021/06/08 06:38:31;;;;;;;5.25;4.78;;;;;;;42.48;20.53;100148.63;260741;1107;102981;-74
2021/06/08 06:43:38;;;;;;;5.08;4.38;;;;;;;42.08;20.45;100151.66;262185;1107;102946;-69
2021/06/08 06:48:45;;;;;;;3.48;3.25;;;;;;;41.74;20.70;100148.50;262417;1107;101343;-70
2021/06/08 06:53:50;;;;;;;3.73;3.38;;;;;;;41.27;20.79;100146.78;262633;1107;101523;-70
2021/06/08 06:58:56;;;;;;;5.35;3.63;;;;;;;41.04;21.08;100141.25;262497;1107;103515;-71
2021/06/08 07:04:04;;;;;;;4.98;3.43;;;;;;;40.85;21.18;100144.86;261515;1107;102937;-70
2021/06/08 07:09:09;;;;;;;3.98;3.68;;;;;;;40.54;21.36;100147.05;262549;1107;101448;-71
2021/06/08 07:14:13;;;;;;;4.45;4.05;;;;;;;40.13;21.11;100145.38;261679;1107;102993;-71
2021/06/08 07:19:20;;;;;;;5.78;3.08;;;;;;;39.58;21.35;100148.66;261749;1107;103072;-70
2021/06/08 07:24:27;;;;;;;5.28;3.85;;;;;;;38.34;23.04;100148.95;261777;1107;102971;-71
2021/06/08 07:29:33;;;;;;;5.10;4.10;;;;;;;37.33;22.97;100149.30;261663;1107;102941;-76
2021/06/08 07:34:48;;;;;;;3.33;3.03;;;;;;;36.35;24.52;100152.00;261063;1107;103231;-74
2021/06/08 07:40:12;;;;;;;3.05;2.85;;;;;;;35.39;24.96;100149.13;260900;1107;102993;-77
2021/06/08 07:45:23;;;;;;;4.10;3.70;;;;;;;34.52;26.03;100148.31;260769;1107;103487;-72
2021/06/08 07:50:33;;;;;;;4.65;4.35;;;;;;;33.72;27.31;100157.11;261535;1107;103101;-75
2021/06/08 07:55:43;;;;;;;6.03;5.53;;;;;;;32.92;28.45;100147.52;260478;1107;102935;-75
2021/06/08 08:00:49;;;;;;;5.13;4.68;;;;;;;32.34;28.74;100156.14;260649;1107;104492;-73
2021/06/08 08:06:07;;;;;;;5.58;4.43;;;;;;;31.86;30.19;100157.67;260590;1107;102990;-71
2021/06/08 08:11:14;;;;;;;7.00;4.93;;;;;;;31.39;30.39;100163.49;259961;1107;103335;-73
2021/06/08 08:16:19;;;;;;;5.08;4.63;;;;;;;31.10;31.67;100154.64;260743;1107;105001;-75
2021/06/08 08:21:25;;;;;;;5.48;4.83;;;;;;;30.78;31.92;100158.67;260606;1107;102962;-75
2021/06/08 08:26:30;;;;;;;5.18;4.78;;;;;;;30.32;32.03;100158.38;260458;1107;103279;-72
2021/06/08 08:31:35;;;;;;;5.97;5.53;;;;;;;29.85;33.00;100152.08;259955;1107;103100;-72
2021/06/08 08:36:42;;;;;;;4.78;4.38;;;;;;;29.69;33.44;100149.30;261700;1107;102971;-70
2021/06/08 08:41:46;;;;;;;4.48;4.18;;;;;;;29.43;33.68;100150.59;261261;1107;103007;-70
2021/06/08 08:46:52;;;;;;;4.70;4.35;;;;;;;29.21;33.32;100144.84;260408;1102;103206;-72
2021/06/08 08:51:57;;;;;;;10.55;5.15;;;;;;;29.20;34.49;100143.23;260959;1107;102966;-70
2021/06/08 08:57:01;;;;;;;5.58;5.18;;;;;;;29.15;34.79;100150.57;262614;1107;101158;-73
2021/06/08 09:02:06;;;;;;;3.90;3.70;;;;;;;29.23;34.58;100140.59;262610;1107;101091;-73
2021/06/08 09:07:13;;;;;;;3.13;2.93;;;;;;;29.13;33.37;100147.38;262350;1107;101543;-71
2021/06/08 09:12:17;;;;;;;4.95;4.43;;;;;;;28.95;33.95;100145.28;261111;1107;103063;-73
2021/06/08 09:17:22;;;;;;;5.27;4.73;;;;;;;28.98;33.69;100153.62;260266;1107;103129;-72
2021/06/08 09:23:02;;;;;;;6.68;3.55;;;;;;;29.07;34.03;100139.73;260424;1107;102975;-75
2021/06/08 09:28:15;;;;;;;4.38;4.08;;;;;;;28.95;33.98;100132.36;260861;1107;102998;-73
2021/06/08 09:33:26;;;;;;;6.70;3.70;;;;;;;29.12;34.56;100143.03;259918;1107;103188;-73
2021/06/08 09:38:39;;;;;;;4.05;3.08;;;;;;;29.15;33.39;100134.10;259958;1107;104122;-73
2021/06/08 09:43:56;;;;;;;5.68;3.65;;;;;;;28.16;33.64;100142.00;261383;1102;103138;-74
2021/06/08 09:49:06;;;;;;;4.25;3.95;;;;;;;27.96;34.33;100135.48;260720;1107;103655;-73
2021/06/08 09:54:35;;;;;;;5.00;3.75;;;;;;;28.44;35.14;100145.67;261116;1107;102964;-74
2021/06/08 09:59:57;;;;;;;4.00;3.70;;;;;;;28.37;34.05;100136.45;260499;1107;103380;-74
2021/06/08 10:05:32;;;;;;;4.43;3.33;;;;;;;28.75;33.65;100136.02;260443;1102;103095;-73
2021/06/08 10:10:44;;;;;;;3.65;3.33;;;;;;;28.52;33.69;100132.98;260608;1107;103075;-74
2021/06/08 10:15:55;;;;;;;4.43;4.03;;;;;;;27.83;34.04;100139.34;260154;1101;103075;-74
2021/06/08 10:21:02;;;;;;;3.15;2.93;;;;;;;28.22;34.18;100126.95;260311;1103;103011;-72
2021/06/08 10:26:17;;;;;;;3.45;2.88;;;;;;;27.75;33.70;100127.37;261570;1107;102965;-74
2021/06/08 10:31:23;;;;;;;3.20;3.08;;;;;;;27.29;34.14;100130.39;260901;1102;103082;-73
2021/06/08 10:36:35;;;;;;;2.70;2.55;;;;;;;27.81;33.96;100120.53;261794;1107;103034;-72
2021/06/08 10:41:46;;;;;;;4.45;3.15;;;;;;;28.24;34.01;100130.16;260855;1107;103056;-73
2021/06/08 10:46:56;;;;;;;3.40;3.10;;;;;;;27.65;33.68;100135.21;261218;1107;103056;-73
2021/06/08 10:52:11;;;;;;;3.18;2.33;;;;;;;27.61;33.96;100129.61;262585;1107;101634;-74
2021/06/08 10:57:18;;;;;;;3.88;3.58;;;;;;;27.87;33.33;100131.25;262538;1106;102619;-73
2021/06/08 11:02:40;;;;;;;3.53;3.23;;;;;;;28.26;32.47;100121.59;261935;1107;102987;-73
2021/06/08 11:07:44;;;;;;;5.08;3.33;;;;;;;27.61;32.56;100115.91;261339;1107;103037;-74
2021/06/08 11:12:48;;;;;;;3.40;2.45;;;;;;;27.92;32.53;100120.87;262141;1101;103667;-71
2021/06/08 11:17:53;;;;;;;5.90;3.05;;;;;;;28.13;32.65;100118.02;261378;1107;103683;-72
2021/06/08 11:22:59;;;;;;;5.63;3.53;;;;;;;28.21;32.87;100119.88;261691;1107;103020;-74
2021/06/08 11:28:14;;;;;;;2.97;2.77;;;;;;;28.48;32.23;100112.88;261304;1103;102965;-73
2021/06/08 11:33:35;;;;;;;4.60;2.83;;;;;;;28.66;31.98;100111.48;261522;1107;102999;-73
2021/06/08 11:38:40;;;;;;;4.08;3.20;;;;;;;28.76;31.28;100099.20;260452;1107;102943;-72
2021/06/08 11:43:46;;;;;;;8.18;3.30;;;;;;;28.44;31.50;100107.28;260309;1102;103048;-73
2021/06/08 11:49:18;;;;;;;4.33;3.88;;;;;;;27.96;32.57;100102.61;260271;1102;103079;-74
2021/06/08 11:54:30;;;;;;;6.43;2.65;;;;;;;28.16;32.78;100092.66;260601;1107;102940;-74
2021/06/08 11:59:44;;;;;;;3.10;2.90;;;;;;;28.20;32.21;100088.09;260197;1107;103085;-71
2021/06/08 12:05:20;;;;;;;3.13;3.03;;;;;;;28.43;32.11;100088.46;260680;1107;103154;-73
2021/06/08 12:10:43;;;;;;;;;;;;;;;28.47;32.06;100081.91;260356;1107;103024;-73
2021/06/08 12:15:51;;;;;;;3.08;2.88;;;;;;;28.43;31.72;100085.72;260438;1106;102990;-73
2021/06/08 12:20:56;;;;;;;9.53;3.80;;;;;;;28.11;31.57;100079.22;260106;1107;103069;-74
2021/06/08 12:26:12;;;;;;;3.60;3.00;;;;;;;28.15;32.07;100069.94;260711;1107;103000;-72
2021/06/08 12:31:19;;;;;;;2.95;2.75;;;;;;;28.36;32.26;100072.58;260726;1107;103337;-72
2021/06/08 12:36:24;;;;;;;3.75;3.45;;;;;;;27.79;32.33;100080.92;260412;1107;102904;-72
2021/06/08 12:41:29;;;;;;;3.73;3.40;;;;;;;26.97;32.82;100074.52;262139;1107;102971;-73
2021/06/08 12:46:39;;;;;;;2.90;2.70;;;;;;;27.08;33.08;100070.23;262474;1107;104119;-72
2021/06/08 12:51:53;;;;;;;3.90;3.55;;;;;;;27.28;32.86;100066.64;262610;1107;101461;-71
2021/06/08 12:56:59;;;;;;;4.43;3.20;;;;;;;27.64;32.92;100060.47;262556;1107;102440;-73
2021/06/08 13:02:08;;;;;;;3.40;3.10;;;;;;;27.91;32.60;100067.21;260977;1107;103158;-73
2021/06/08 13:07:21;;;;;;;2.58;2.45;;;;;;;27.92;31.55;100059.80;261599;1107;103016;-74
2021/06/08 13:12:27;;;;;;;3.18;2.98;;;;;;;27.79;31.31;100054.33;261980;1107;102937;-73
2021/06/08 13:17:33;;;;;;;8.03;3.53;;;;;;;27.86;31.79;100055.67;261905;1103;102944;-73
2021/06/08 13:22:38;;;;;;;7.80;3.08;;;;;;;27.83;31.90;100040.72;261149;1107;102939;-72
2021/06/08 13:27:44;;;;;;;4.13;3.55;;;;;;;27.80;32.77;100042.23;259923;1107;103101;-73
2021/06/08 13:32:58;;;;;;;3.90;3.60;;;;;;;27.93;32.90;100039.47;260630;1107;102995;-73
2021/06/08 13:38:08;;;;;;;3.88;3.43;;;;;;;28.08;32.85;100044.27;260839;1107;103123;-74
2021/06/08 13:43:15;;;;;;;3.53;3.33;;;;;;;27.99;32.09;100033.42;261052;1107;102991;-73
2021/06/08 13:48:34;;;;;;;3.58;2.80;;;;;;;28.10;32.36;100031.83;260096;1107;102968;-73
2021/06/08 13:53:39;;;;;;;5.33;2.65;;;;;;;28.02;31.66;100021.78;260161;1107;103114;-73
2021/06/08 14:04:09;;;;;;;3.50;3.23;;;;;;;27.80;31.69;100009.36;260535;1107;102988;-73
2021/06/08 14:09:16;;;;;;;3.05;2.85;;;;;;;27.70;32.01;100012.55;261213;1107;103036;-73
2021/06/08 14:14:33;;;;;;;3.20;2.78;;;;;;;27.63;32.24;100009.57;260919;1107;103075;-72
2021/06/08 14:19:40;;;;;;;8.38;2.80;;;;;;;27.38;32.48;100013.41;261718;1107;103015;-73
2021/06/08 14:24:46;;;;;;;5.13;3.48;;;;;;;27.30;32.85;100004.14;260787;1101;103151;-70
2021/06/08 14:29:50;;;;;;;3.43;3.10;;;;;;;27.34;33.12;99998.80;261668;1107;102961;-71
2021/06/08 14:35:11;;;;;;;3.37;3.07;;;;;;;27.30;32.97;99995.13;261659;1106;103037;-73
2021/06/08 14:40:18;;;;;;;3.90;3.10;;;;;;;27.11;32.71;99993.75;260677;1107;103098;-72
2021/06/08 14:45:23;;;;;;;3.85;3.28;;;;;;;26.93;33.67;99994.22;260136;1107;102968;-73
2021/06/08 14:50:27;;;;;;;3.48;3.25;;;;;;;26.79;33.61;99994.53;261719;1107;103109;-73
2021/06/08 14:55:32;;;;;;;3.45;3.15;;;;;;;26.68;34.05;99988.67;262216;1107;102936;-73
2021/06/08 15:00:36;;;;;;;3.30;3.10;;;;;;;26.59;34.24;99992.64;262602;1107;101444;-72
2021/06/08 15:05:40;;;;;;;2.95;2.78;;;;;;;26.30;33.95;99986.09;262613;1107;103038;-73
2021/06/08 15:10:44;;;;;;;4.60;3.70;;;;;;;26.31;34.26;99982.22;262602;1107;101931;-73
2021/06/08 15:15:49;;;;;;;7.75;3.08;;;;;;;26.42;34.23;99983.44;260702;1107;103280;-71
2021/06/08 15:20:53;;;;;;;4.50;3.10;;;;;;;26.35;34.14;99988.63;261709;1107;103249;-75
2021/06/08 15:25:58;;;;;;;4.30;3.48;;;;;;;26.35;34.38;99990.56;261897;1107;102941;-73
2021/06/08 15:31:04;;;;;;;3.33;3.13;;;;;;;26.41;34.40;99979.09;261397;1107;102952;-73
2021/06/08 15:36:10;;;;;;;4.23;3.60;;;;;;;26.22;34.74;99983.41;261283;1107;102943;-73
2021/06/08 15:41:16;;;;;;;3.55;3.03;;;;;;;26.20;34.15;99980.21;260785;1107;102960;-75
2021/06/08 15:46:20;;;;;;;2.90;2.70;;;;;;;26.13;33.95;99972.54;261226;1107;102984;-73
2021/06/08 15:51:24;;;;;;;6.03;3.20;;;;;;;26.11;34.59;99969.34;261212;1107;102968;-73
2021/06/08 15:56:29;;;;;;;3.33;3.03;;;;;;;26.12;34.36;99969.01;260934;1107;102943;-72
2021/06/08 16:01:34;;;;;;;4.10;2.78;;;;;;;26.09;34.74;99971.60;260854;1107;103021;-73
2021/06/08 16:06:39;;;;;;;3.60;3.35;;;;;;;25.97;34.84;99971.55;260095;1107;104304;-72
2021/06/08 16:12:04;;;;;;;2.75;2.53;;;;;;;25.83;35.20;99963.58;260162;1106;103173;-73
2021/06/08 16:17:08;;;;;;;3.75;3.45;;;;;;;25.67;35.24;99970.76;260753;1107;102968;-73
2021/06/08 16:22:13;;;;;;;4.10;3.17;;;;;;;25.48;35.12;99971.13;260030;1101;103097;-74
2021/06/08 16:27:16;;;;;;;7.70;3.43;;;;;;;25.29;35.84;99968.00;260731;1107;103132;-73
2021/06/08 16:32:21;;;;;;;3.45;3.20;;;;;;;25.15;36.07;99979.91;260124;1103;104490;-74
2021/06/08 16:37:25;;;;;;;5.30;3.48;;;;;;;24.97;36.10;99967.46;260338;1107;103144;-74
2021/06/08 16:42:29;;;;;;;4.78;3.15;;;;;;;24.83;36.27;99969.53;260392;1107;103283;-74
2021/06/08 16:47:33;;;;;;;4.63;3.40;;;;;;;24.73;36.33;99967.17;261148;1107;102990;-73
2021/06/08 16:58:01;;;;;;;3.60;3.23;;;;;;;24.57;36.92;99966.05;262068;1107;103015;-71
2021/06/08 17:03:07;;;;;;;3.60;3.10;;;;;;;24.49;37.27;99962.20;262058;1107;102220;-72
2021/06/08 17:08:12;;;;;;;2.78;2.68;;;;;;;24.44;37.11;99965.11;262657;1107;102686;-73
2021/06/08 17:13:17;;;;;;;2.88;2.68;;;;;;;24.35;37.28;99961.58;262655;1107;101151;-73
2021/06/08 17:18:21;;;;;;;3.33;3.13;;;;;;;24.21;37.15;99977.23;262175;1107;102939;-71
2021/06/08 17:23:26;;;;;;;6.00;3.10;;;;;;;24.15;37.46;99973.89;261523;1107;102987;-71
2021/06/08 17:28:31;;;;;;;6.88;2.83;;;;;;;24.06;37.59;99970.34;260724;1107;102950;-71
2021/06/08 17:33:36;;;;;;;6.00;3.40;;;;;;;23.96;37.93;99981.53;260089;1107;103113;-73
2021/06/08 17:38:42;;;;;;;3.30;3.10;;;;;;;23.85;38.17;99981.02;259993;1107;103237;-73
2021/06/08 17:43:47;;;;;;;3.45;3.25;;;;;;;23.76;38.53;99981.02;260347;1101;102961;-72
2021/06/08 17:48:52;;;;;;;4.33;3.03;;;;;;;23.64;39.13;99983.53;261043;1107;102939;-72
2021/06/08 17:53:57;;;;;;;5.05;3.43;;;;;;;23.49;39.44;99994.83;261318;1107;103754;-74
2021/06/08 17:59:02;;;;;;;3.43;3.10;;;;;;;23.35;39.64;99992.19;260665;1107;102965;-76
2021/06/08 18:04:06;;;;;;;3.98;3.70;;;;;;;23.23;40.67;99993.91;260613;1107;103059;-77
2021/06/08 18:09:10;;;;;;;3.23;3.03;;;;;;;23.13;40.64;99994.97;260651;1107;103011;-78
2021/06/08 18:14:15;;;;;;;3.60;3.28;;;;;;;23.02;41.07;99996.33;260593;1107;103134;-75
2021/06/08 18:19:30;;;;;;;3.70;3.50;;;;;;;22.91;41.42;100000.44;260162;1106;102972;-75
2021/06/08 18:24:40;;;;;;;4.23;3.83;;;;;;;22.69;41.62;100010.16;260350;1107;103083;-73
2021/06/08 18:29:47;;;;;;;139.35;15.85;;;;;;;22.53;42.36;100013.55;261386;1107;102977;-73
2021/06/08 18:34:54;;;;;;;5.70;3.58;;;;;;;22.40;42.84;100012.47;260079;1107;102987;-72
2021/06/08 18:39:58;;;;;;;6.98;3.33;;;;;;;22.25;43.29;100019.06;261973;1106;103059;-73
2021/06/08 18:45:04;;;;;;;6.93;4.05;;;;;;;22.09;43.79;100018.57;260949;1107;102962;-73
2021/06/08 18:50:10;;;;;;;3.48;3.20;;;;;;;21.96;44.64;100024.00;260034;1107;103019;-73
2021/06/08 18:55:15;;;;;;;;;;;;;;;21.76;45.25;100020.58;260815;1107;102927;-72
2021/06/08 19:00:24;;;;;;;5.30;4.23;;;;;;;21.58;45.44;100024.20;261122;1107;103113;-73
2021/06/08 19:05:29;;;;;;;4.94;4.10;;;;;;;21.44;45.90;100034.22;261756;1107;102529;-74
2021/06/08 19:10:37;;;;;;;4.25;3.95;;;;;;;21.26;46.95;100037.81;262658;1107;101155;-71
2021/06/08 19:15:42;;;;;;;6.98;3.60;;;;;;;21.09;47.06;100052.71;262621;1107;101989;-73
2021/06/08 19:20:46;;;;;;;4.80;3.98;;;;;;;20.92;47.75;100059.75;262499;1107;102155;-72
2021/06/08 19:25:50;;;;;;;3.95;3.28;;;;;;;20.76;47.84;100057.30;262548;1106;104018;-71
2021/06/08 19:30:57;;;;;;;10.05;5.10;;;;;;;20.61;48.24;100059.41;261685;1102;101450;-72
2021/06/08 19:36:01;;;;;;;4.28;3.83;;;;;;;20.43;48.84;100063.73;260475;1107;103024;-75
2021/06/08 19:41:07;;;;;;;4.35;4.05;;;;;;;20.24;49.45;100074.50;261352;1107;103034;-71
2021/06/08 19:46:14;;;;;;;5.08;4.43;;;;;;;20.08;50.16;100083.91;260157;1107;103064;-74
2021/06/08 19:51:21;;;;;;;6.10;3.88;;;;;;;19.91;50.20;100075.44;260295;1107;103070;-69
2021/06/08 19:56:26;;;;;;;6.50;3.70;;;;;;;19.74;50.58;100084.02;260587;1107;103499;-72
2021/06/08 20:01:31;;;;;;;5.33;4.78;;;;;;;19.54;51.44;100071.53;261027;1107;103014;-71
2021/06/08 20:06:36;;;;;;;7.65;4.40;;;;;;;19.38;51.37;100080.83;260680;1107;102964;-72
2021/06/08 20:11:44;;;;;;;5.73;3.75;;;;;;;19.19;51.85;100075.33;259972;1106;103128;-71
2021/06/08 20:17:08;;;;;;;5.30;4.25;;;;;;;19.01;52.05;100070.59;259877;1107;103116;-71
2021/06/08 20:22:12;;;;;;;7.38;5.58;;;;;;;18.84;52.68;100076.41;260064;1107;103014;-70
2021/06/08 20:27:16;;;;;;;5.33;4.87;;;;;;;18.63;53.28;100077.63;260096;1101;103459;-69
2021/06/08 20:32:20;;;;;;;5.68;4.90;;;;;;;18.45;53.62;100076.34;260449;1107;103094;-70
2021/06/08 20:37:25;;;;;;;4.68;4.28;;;;;;;18.25;54.19;100079.14;260693;1107;103103;-69
2021/06/08 20:42:30;;;;;;;4.63;4.03;;;;;;;18.04;54.55;100076.52;261365;1103;103103;-70
2021/06/08 20:47:36;;;;;;;4.28;3.95;;;;;;;17.82;54.87;100084.95;261484;1107;102943;-72
2021/06/08 20:52:41;;;;;;;4.48;3.58;;;;;;;17.52;55.29;100082.28;260751;1107;102911;-71
2021/06/08 20:57:47;;;;;;;3.75;3.53;;;;;;;17.23;56.03;100084.73;260476;1102;103014;-68
2021/06/08 21:02:53;;;;;;;4.80;4.40;;;;;;;17.04;57.06;100091.75;262689;1101;101281;-71
2021/06/08 21:07:58;;;;;;;9.06;5.10;;;;;;;17.01;57.05;100092.28;261468;1107;102965;-70
2021/06/08 21:13:03;;;;;;;8.73;5.25;;;;;;;16.97;57.29;100094.70;260296;1103;102966;-70
2021/06/08 21:18:07;;;;;;;5.23;4.80;;;;;;;16.79;57.72;100100.61;262286;1107;103196;-70
2021/06/08 21:23:13;;;;;;;5.78;5.33;;;;;;;16.61;58.27;100101.06;262639;1107;101262;-71
2021/06/08 21:28:19;;;;;;;5.78;5.25;;;;;;;16.52;58.47;100098.06;260650;1106;103108;-73
2021/06/08 21:33:23;;;;;;;18.20;4.55;;;;;;;16.24;58.58;100104.70;261299;1107;102962;-70
2021/06/08 21:38:27;;;;;;;4.00;3.70;;;;;;;16.02;58.69;100121.02;260182;1107;104053;-70
2021/06/08 21:43:32;;;;;;;4.75;4.45;;;;;;;15.72;59.67;100127.02;260054;1107;103061;-72
2021/06/08 21:48:40;;;;;;;5.38;4.98;;;;;;;15.50;60.14;100126.30;260119;1107;103127;-72
2021/06/08 21:53:46;;;;;;;5.35;4.95;;;;;;;15.44;60.74;100130.01;260295;1107;103136;-70
2021/06/08 21:58:53;;;;;;;5.90;5.43;;;;;;;15.45;60.97;100129.75;261578;1107;102960;-70
2021/06/08 22:03:58;;;;;;;4.38;4.13;;;;;;;15.35;61.18;100123.48;260422;1107;103039;-71
2021/06/08 22:09:04;;;;;;;5.55;5.05;;;;;;;15.11;61.34;100128.38;260627;1107;103165;-71
2021/06/08 22:14:09;;;;;;;;;;;;;;;14.97;61.65;100133.38;260841;1107;102978;-72
2021/06/08 22:19:17;;;;;;;9.03;5.10;;;;;;;14.90;61.76;100131.95;260120;1107;102967;-72
2021/06/08 22:24:21;;;;;;;5.08;4.68;;;;;;;14.77;62.08;100130.47;261159;1107;102942;-72
2021/06/08 22:29:25;;;;;;;13.50;5.33;;;;;;;14.67;61.96;100130.38;260462;1102;103096;-71
2021/06/08 22:34:33;;;;;;;5.20;4.75;;;;;;;14.50;61.92;100127.75;260904;1107;102964;-72
2021/06/08 22:39:37;;;;;;;6.30;5.80;;;;;;;14.38;62.88;100125.16;260796;1101;103040;-69
2021/06/08 22:44:41;;;;;;;6.40;5.85;;;;;;;14.29;63.24;100128.55;260353;1103;103040;-69
2021/06/08 22:49:45;;;;;;;6.98;5.20;;;;;;;14.10;63.67;100126.16;260517;1107;103526;-69
2021/06/08 22:54:51;;;;;;;11.45;4.98;;;;;;;13.96;64.13;100122.23;261415;1107;103017;-69
2021/06/08 22:59:55;;;;;;;8.17;7.03;;;;;;;13.96;64.70;100124.09;260127;1107;103201;-71
2021/06/08 23:04:59;;;;;;;7.65;7.05;;;;;;;14.05;64.63;100119.94;260583;1107;102921;-70
2021/06/08 23:10:05;;;;;;;8.33;7.30;;;;;;;14.04;64.94;100119.13;262356;1107;102760;-70
2021/06/08 23:15:12;;;;;;;6.60;6.03;;;;;;;14.03;65.17;100120.19;262647;1107;102651;-69
2021/06/08 23:20:18;;;;;;;6.58;6.03;;;;;;;13.80;64.02;100115.83;261983;1107;101425;-70
2021/06/08 23:25:22;;;;;;;7.10;6.45;;;;;;;13.70;64.91;100128.28;262514;1107;101372;-70
2021/06/08 23:30:28;;;;;;;10.53;6.05;;;;;;;13.68;65.26;100128.53;260266;1107;102960;-69